sensor_id;sensor_type;location;lat;lon;timestamp;pressure;altitude;pressure_sealevel;temperature;humidity
48402;BME280;65988;52.422;16.746;2023-07-22T00:02:19;99628.44;;;29.15;44.50
48402;BME280;65988;52.422;16.746;2023-07-22T00:04:53;99390.16;;;28.21;44.77
48402;BME280;65988;52.422;16.746;2023-07-22T00:07:31;99608.88;;;29.08;44.65
48402;BME280;65988;52.422;16.746;2023-07-22T00:10:00;99533.81;;;29.35;43.88
48402;BME280;65988;52.422;16.746;2023-07-22T00:12:29;99345.03;;;27.90;44.79
48402;BME280;65988;52.422;16.746;2023-07-22T00:15:07;99571.13;;;28.89;44.60
48402;BME280;65988;52.422;16.746;2023-07-22T00:17:38;99510.53;;;28.76;44.16
48402;BME280;65988;52.422;16.746;2023-07-22T00:20:15;99558.88;;;29.18;44.07
48402;BME280;65988;52.422;16.746;2023-07-22T00:22:41;99336.41;;;27.41;45.13
48402;BME280;65988;52.422;16.746;2023-07-22T00:25:20;99541.59;;;28.52;44.38
48402;BME280;65988;52.422;16.746;2023-07-22T00:27:50;99318.63;;;27.73;44.93
48402;BME280;65988;52.422;16.746;2023-07-22T00:30:18;99467.13;;;27.35;45.87
48402;BME280;65988;52.422;16.746;2023-07-22T00:32:47;99456.44;;;27.52;45.44
48402;BME280;65988;52.422;16.746;2023-07-22T00:35:16;99374.13;;;27.60;44.69
48402;BME280;65988;52.422;16.746;2023-07-22T00:37:52;99485.84;;;28.21;44.54
48402;BME280;65988;52.422;16.746;2023-07-22T00:40:22;99276.00;;;27.12;45.24
48402;BME280;65988;52.422;16.746;2023-07-22T00:42:51;99504.25;;;28.23;44.88
48402;BME280;65988;52.422;16.746;2023-07-22T00:45:32;99360.19;;;26.70;46.18
48402;BME280;65988;52.422;16.746;2023-07-22T00:48:08;99492.88;;;27.10;46.41
48402;BME280;65988;52.422;16.746;2023-07-22T00:50:40;99526.25;;;27.60;45.85
48402;BME280;65988;52.422;16.746;2023-07-22T00:54:07;99493.13;;;28.19;44.88
48402;BME280;65988;52.422;16.746;2023-07-22T00:56:43;99472.00;;;26.98;46.18
48402;BME280;65988;52.422;16.746;2023-07-22T00:59:30;99495.44;;;27.59;45.14
48402;BME280;65988;52.422;16.746;2023-07-22T01:02:24;99460.03;;;27.19;46.08
48402;BME280;65988;52.422;16.746;2023-07-22T01:05:10;99474.00;;;27.61;44.93
48402;BME280;65988;52.422;16.746;2023-07-22T01:07:42;99351.59;;;26.52;46.41
48402;BME280;65988;52.422;16.746;2023-07-22T01:10:16;99452.47;;;26.83;46.46
48402;BME280;65988;52.422;16.746;2023-07-22T01:12:55;99494.09;;;27.63;45.16
48402;BME280;65988;52.422;16.746;2023-07-22T01:15:27;99520.59;;;27.72;45.46
48402;BME280;65988;52.422;16.746;2023-07-22T01:21:54;99440.84;;;27.88;44.38
48402;BME280;65988;52.422;16.746;2023-07-22T01:24:58;99457.34;;;27.75;44.64
48402;BME280;65988;52.422;16.746;2023-07-22T01:27:35;99405.66;;;27.55;44.96
48402;BME280;65988;52.422;16.746;2023-07-22T01:30:12;99370.59;;;26.80;45.98
48402;BME280;65988;52.422;16.746;2023-07-22T01:36:06;99419.66;;;26.26;47.10
48402;BME280;65988;52.422;16.746;2023-07-22T01:39:14;99464.59;;;27.50;45.12
48402;BME280;65988;52.422;16.746;2023-07-22T01:41:48;99481.94;;;26.47;46.72
48402;BME280;65988;52.422;16.746;2023-07-22T01:44:18;99396.75;;;26.91;45.82
48402;BME280;65988;52.422;16.746;2023-07-22T01:47:07;99291.50;;;25.78;46.73
48402;BME280;65988;52.422;16.746;2023-07-22T01:49:38;99337.13;;;27.27;44.68
48402;BME280;65988;52.422;16.746;2023-07-22T01:52:12;99448.81;;;26.92;46.15
48402;BME280;65988;52.422;16.746;2023-07-22T01:54:57;99332.25;;;26.26;45.93
48402;BME280;65988;52.422;16.746;2023-07-22T02:00:23;99494.31;;;27.45;45.34
48402;BME280;65988;52.422;16.746;2023-07-22T02:02:59;99367.50;;;26.27;46.51
48402;BME280;65988;52.422;16.746;2023-07-22T02:11:37;99519.78;;;27.63;45.14
48402;BME280;65988;52.422;16.746;2023-07-22T02:14:39;99295.09;;;26.51;45.75
48402;BME280;65988;52.422;16.746;2023-07-22T02:20:28;99407.72;;;26.80;45.78
48402;BME280;65988;52.422;16.746;2023-07-22T02:23:01;99217.63;;;26.33;45.74
48402;BME280;65988;52.422;16.746;2023-07-22T02:25:46;99461.56;;;26.97;45.70
48402;BME280;65988;52.422;16.746;2023-07-22T02:28:26;99396.13;;;26.64;46.08
48402;BME280;65988;52.422;16.746;2023-07-22T02:34:18;99436.06;;;26.46;46.47
48402;BME280;65988;52.422;16.746;2023-07-22T02:36:56;99327.28;;;26.15;46.04
48402;BME280;65988;52.422;16.746;2023-07-22T02:39:47;99253.63;;;25.86;46.40
48402;BME280;65988;52.422;16.746;2023-07-22T02:42:31;99411.06;;;26.41;46.36
48402;BME280;65988;52.422;16.746;2023-07-22T02:45:07;99423.28;;;26.67;45.70
48402;BME280;65988;52.422;16.746;2023-07-22T02:47:44;99378.91;;;26.44;45.45
48402;BME280;65988;52.422;16.746;2023-07-22T02:50:16;99495.88;;;26.90;45.35
48402;BME280;65988;52.422;16.746;2023-07-22T02:52:48;99425.88;;;27.16;45.14
48402;BME280;65988;52.422;16.746;2023-07-22T02:55:26;99388.50;;;26.61;45.64
48402;BME280;65988;52.422;16.746;2023-07-22T03:01:12;99368.44;;;25.76;46.51
48402;BME280;65988;52.422;16.746;2023-07-22T03:03:46;99442.47;;;25.52;47.69
48402;BME280;65988;52.422;16.746;2023-07-22T03:06:30;99417.97;;;27.00;45.08
48402;BME280;65988;52.422;16.746;2023-07-22T03:08:59;99371.06;;;25.68;47.26
48402;BME280;65988;52.422;16.746;2023-07-22T03:11:34;99473.56;;;26.01;46.98
48402;BME280;65988;52.422;16.746;2023-07-22T03:14:08;99248.13;;;24.87;47.74
48402;BME280;65988;52.422;16.746;2023-07-22T03:16:38;99322.50;;;24.92;48.00
48402;BME280;65988;52.422;16.746;2023-07-22T03:19:19;99529.66;;;26.39;46.80
48402;BME280;65988;52.422;16.746;2023-07-22T03:21:47;99354.19;;;24.39;49.96
48402;BME280;65988;52.422;16.746;2023-07-22T03:24:20;99537.19;;;25.22;49.46
48402;BME280;65988;52.422;16.746;2023-07-22T03:27:05;99511.50;;;25.67;48.44
48402;BME280;65988;52.422;16.746;2023-07-22T03:29:45;99581.81;;;25.95;48.45
48402;BME280;65988;52.422;16.746;2023-07-22T03:32:46;99499.31;;;26.25;47.41
48402;BME280;65988;52.422;16.746;2023-07-22T03:35:35;99596.16;;;25.58;49.25
48402;BME280;65988;52.422;16.746;2023-07-22T03:38:53;99431.00;;;25.86;47.78
48402;BME280;65988;52.422;16.746;2023-07-22T03:41:23;99550.22;;;25.68;48.75
48402;BME280;65988;52.422;16.746;2023-07-22T03:57:01;99537.28;;;26.67;47.02
48402;BME280;65988;52.422;16.746;2023-07-22T04:03:14;99628.50;;;27.07;47.34
48402;BME280;65988;52.422;16.746;2023-07-22T04:09:30;99515.22;;;26.33;47.95
48402;BME280;65988;52.422;16.746;2023-07-22T04:16:13;99577.59;;;27.92;45.93
48402;BME280;65988;52.422;16.746;2023-07-22T04:57:01;99603.88;;;26.55;48.38
48402;BME280;65988;52.422;16.746;2023-07-22T05:02:44;99590.34;;;27.32;47.23
48402;BME280;65988;52.422;16.746;2023-07-22T05:05:44;99800.25;;;27.89;47.68
48402;BME280;65988;52.422;16.746;2023-07-22T05:09:04;99602.28;;;27.53;46.49
48402;BME280;65988;52.422;16.746;2023-07-22T05:12:19;99745.19;;;28.95;45.44
48402;BME280;65988;52.422;16.746;2023-07-22T05:14:51;99624.78;;;28.93;44.70
48402;BME280;65988;52.422;16.746;2023-07-22T05:17:44;99614.38;;;28.83;44.57
48402;BME280;65988;52.422;16.746;2023-07-22T05:20:21;99593.56;;;27.84;46.14
48402;BME280;65988;52.422;16.746;2023-07-22T05:22:53;99667.63;;;28.43;45.35
48402;BME280;65988;52.422;16.746;2023-07-22T05:26:02;99598.06;;;29.47;43.64
48402;BME280;65988;52.422;16.746;2023-07-22T05:29:00;99662.09;;;29.31;44.08
48402;BME280;65988;52.422;16.746;2023-07-22T05:31:44;99589.81;;;29.19;43.69
48402;BME280;65988;52.422;16.746;2023-07-22T05:34:45;99458.91;;;28.24;44.52
48402;BME280;65988;52.422;16.746;2023-07-22T05:37:47;99730.16;;;29.72;43.63
48402;BME280;65988;52.422;16.746;2023-07-22T05:40:41;99591.66;;;29.18;43.85
48402;BME280;65988;52.422;16.746;2023-07-22T05:43:35;99636.53;;;28.44;45.11
48402;BME280;65988;52.422;16.746;2023-07-22T05:49:08;99598.09;;;28.55;44.74
48402;BME280;65988;52.422;16.746;2023-07-22T08:37:48;99387.28;;;34.02;33.14
48402;BME280;65988;52.422;16.746;2023-07-22T08:40:39;99509.44;;;33.12;34.93
48402;BME280;65988;52.422;16.746;2023-07-22T08:43:24;99537.38;;;32.16;35.61
48402;BME280;65988;52.422;16.746;2023-07-22T08:46:08;99653.78;;;32.73;35.51
48402;BME280;65988;52.422;16.746;2023-07-22T08:49:20;99771.59;;;34.68;34.47
48402;BME280;65988;52.422;16.746;2023-07-22T08:51:54;99659.75;;;34.61;33.49
48402;BME280;65988;52.422;16.746;2023-07-22T08:54:25;99493.91;;;34.38;32.76
48402;BME280;65988;52.422;16.746;2023-07-22T08:57:02;99557.56;;;34.18;33.22
48402;BME280;65988;52.422;16.746;2023-07-22T08:59:29;99609.84;;;34.86;32.56
48402;BME280;65988;52.422;16.746;2023-07-22T09:01:59;99550.50;;;34.30;32.40
48402;BME280;65988;52.422;16.746;2023-07-22T09:04:37;99521.06;;;34.49;32.14
48402;BME280;65988;52.422;16.746;2023-07-22T09:07:14;99504.28;;;34.28;32.20
48402;BME280;65988;52.422;16.746;2023-07-22T09:10:43;99435.50;;;33.11;33.25
48402;BME280;65988;52.422;16.746;2023-07-22T09:13:15;99722.88;;;35.09;32.50
48402;BME280;65988;52.422;16.746;2023-07-22T09:16:13;99690.50;;;36.36;30.93
48402;BME280;65988;52.422;16.746;2023-07-22T09:18:50;99806.31;;;39.05;29.66
48402;BME280;65988;52.422;16.746;2023-07-22T09:21:40;99501.03;;;36.25;30.08
48402;BME280;65988;52.422;16.746;2023-07-22T09:24:33;99757.09;;;37.62;29.78
48402;BME280;65988;52.422;16.746;2023-07-22T09:27:51;99532.19;;;37.46;28.86
48402;BME280;65988;52.422;16.746;2023-07-22T09:31:00;99375.06;;;33.74;31.00
48402;BME280;65988;52.422;16.746;2023-07-22T09:33:55;99377.94;;;32.55;32.15
48402;BME280;65988;52.422;16.746;2023-07-22T09:40:11;99580.19;;;36.36;30.14
48402;BME280;65988;52.422;16.746;2023-07-22T09:45:48;99714.75;;;36.66;30.40
48402;BME280;65988;52.422;16.746;2023-07-22T09:48:44;99277.72;;;33.16;31.38
48402;BME280;65988;52.422;16.746;2023-07-22T09:51:25;99395.88;;;32.41;32.42
48402;BME280;65988;52.422;16.746;2023-07-22T09:59:46;99811.28;;;38.43;28.79
48402;BME280;65988;52.422;16.746;2023-07-22T10:02:25;99486.78;;;37.55;27.05
48402;BME280;65988;52.422;16.746;2023-07-22T10:11:25;99592.09;;;38.29;26.69
48402;BME280;65988;52.422;16.746;2023-07-22T10:14:08;99552.44;;;38.30;26.66
48402;BME280;65988;52.422;16.746;2023-07-22T10:20:27;99463.66;;;37.18;27.28
48402;BME280;65988;52.422;16.746;2023-07-22T10:23:33;99359.75;;;36.81;26.70
48402;BME280;65988;52.422;16.746;2023-07-22T10:26:14;99466.06;;;34.90;29.14
48402;BME280;65988;52.422;16.746;2023-07-22T10:28:55;99577.19;;;36.56;28.00
48402;BME280;65988;52.422;16.746;2023-07-22T10:31:31;99587.13;;;37.09;27.50
48402;BME280;65988;52.422;16.746;2023-07-22T10:34:31;99330.94;;;35.99;27.12
48402;BME280;65988;52.422;16.746;2023-07-22T10:37:42;99488.69;;;36.36;27.90
48402;BME280;65988;52.422;16.746;2023-07-22T10:49:45;99469.41;;;37.10;26.46
48402;BME280;65988;52.422;16.746;2023-07-22T10:58:56;99520.16;;;38.06;26.09
48402;BME280;65988;52.422;16.746;2023-07-22T11:02:04;99429.84;;;36.51;26.42
48402;BME280;65988;52.422;16.746;2023-07-22T11:04:50;99597.06;;;38.66;25.51
48402;BME280;65988;52.422;16.746;2023-07-22T11:07:52;99407.41;;;37.22;25.98
48402;BME280;65988;52.422;16.746;2023-07-22T11:10:35;99387.84;;;37.26;25.70
48402;BME280;65988;52.422;16.746;2023-07-22T11:16:17;99142.19;;;33.91;27.78
48402;BME280;65988;52.422;16.746;2023-07-22T11:19:07;99396.94;;;35.04;27.55
48402;BME280;65988;52.422;16.746;2023-07-22T11:22:01;99349.91;;;34.57;28.01
48402;BME280;65988;52.422;16.746;2023-07-22T11:24:41;99406.59;;;35.05;27.83
48402;BME280;65988;52.422;16.746;2023-07-22T11:27:23;99534.91;;;35.84;27.72
48402;BME280;65988;52.422;16.746;2023-07-22T11:30:04;99462.88;;;35.55;27.59
48402;BME280;65988;52.422;16.746;2023-07-22T11:32:44;99552.59;;;36.22;27.50
48402;BME280;65988;52.422;16.746;2023-07-22T11:35:31;99382.28;;;35.97;26.90
48402;BME280;65988;52.422;16.746;2023-07-22T11:41:55;99364.31;;;36.69;26.21
48402;BME280;65988;52.422;16.746;2023-07-22T11:44:50;99517.81;;;37.81;25.88
48402;BME280;65988;52.422;16.746;2023-07-22T11:50:20;99485.97;;;38.58;25.31
48402;BME280;65988;52.422;16.746;2023-07-22T11:55:47;99196.97;;;36.60;25.71
48402;BME280;65988;52.422;16.746;2023-07-22T11:58:26;99529.78;;;37.61;26.10
48402;BME280;65988;52.422;16.746;2023-07-22T12:01:19;99292.47;;;36.22;26.01
48402;BME280;65988;52.422;16.746;2023-07-22T12:04:13;99303.28;;;35.07;27.08
48402;BME280;65988;52.422;16.746;2023-07-22T12:06:42;99282.59;;;34.59;27.37
48402;BME280;65988;52.422;16.746;2023-07-22T12:09:47;99397.50;;;35.06;27.50
48402;BME280;65988;52.422;16.746;2023-07-22T12:13:01;99345.78;;;35.29;27.01
48402;BME280;65988;52.422;16.746;2023-07-22T12:16:06;99558.28;;;37.45;26.14
48402;BME280;65988;52.422;16.746;2023-07-22T12:24:51;99247.78;;;37.60;25.69
48402;BME280;65988;52.422;16.746;2023-07-22T12:33:08;99390.88;;;36.89;25.66
48402;BME280;65988;52.422;16.746;2023-07-22T12:35:41;99210.38;;;35.06;26.87
48402;BME280;65988;52.422;16.746;2023-07-22T12:38:32;99570.75;;;37.35;26.45
48402;BME280;65988;52.422;16.746;2023-07-22T12:41:10;99094.84;;;36.13;25.81
48402;BME280;65988;52.422;16.746;2023-07-22T12:44:04;99573.81;;;38.65;25.18
48402;BME280;65988;52.422;16.746;2023-07-22T12:46:42;99363.78;;;37.65;24.82
48402;BME280;65988;52.422;16.746;2023-07-22T12:49:33;99332.25;;;37.66;24.55
48402;BME280;65988;52.422;16.746;2023-07-22T12:52:24;99353.06;;;36.84;25.73
48402;BME280;65988;52.422;16.746;2023-07-22T12:57:44;99409.13;;;38.14;24.73
48402;BME280;65988;52.422;16.746;2023-07-22T13:01:00;99306.56;;;37.46;24.69
48402;BME280;65988;52.422;16.746;2023-07-22T13:04:22;99400.66;;;37.07;25.51
48402;BME280;65988;52.422;16.746;2023-07-22T13:07:00;99508.72;;;38.16;25.15
48402;BME280;65988;52.422;16.746;2023-07-22T13:10:19;99276.34;;;36.87;24.81
48402;BME280;65988;52.422;16.746;2023-07-22T13:16:27;99193.91;;;35.57;25.43
48402;BME280;65988;52.422;16.746;2023-07-22T13:19:36;99294.09;;;36.59;25.34
48402;BME280;65988;52.422;16.746;2023-07-22T13:22:17;99555.06;;;38.25;24.79
48402;BME280;65988;52.422;16.746;2023-07-22T13:25:00;99161.91;;;36.72;24.38
48402;BME280;65988;52.422;16.746;2023-07-22T13:27:38;99036.25;;;35.27;25.61
48402;BME280;65988;52.422;16.746;2023-07-22T13:30:29;99266.41;;;35.15;26.43
48402;BME280;65988;52.422;16.746;2023-07-22T13:33:12;99322.91;;;35.08;27.14
48402;BME280;65988;52.422;16.746;2023-07-22T13:41:53;99641.47;;;38.71;25.96
48402;BME280;65988;52.422;16.746;2023-07-22T13:44:59;99608.88;;;38.60;25.67
48402;BME280;65988;52.422;16.746;2023-07-22T13:47:42;99460.25;;;37.75;25.18
48402;BME280;65988;52.422;16.746;2023-07-22T13:50:33;99428.16;;;37.91;25.11
48402;BME280;65988;52.422;16.746;2023-07-22T13:53:19;99188.88;;;37.86;24.45
48402;BME280;65988;52.422;16.746;2023-07-22T13:55:54;99314.78;;;37.69;24.45
48402;BME280;65988;52.422;16.746;2023-07-22T13:58:41;99524.03;;;39.51;23.84
48402;BME280;65988;52.422;16.746;2023-07-22T14:04:49;99280.63;;;36.83;24.80
48402;BME280;65988;52.422;16.746;2023-07-22T14:07:19;99395.81;;;37.33;25.19
48402;BME280;65988;52.422;16.746;2023-07-22T14:09:53;99232.19;;;36.59;24.89
48402;BME280;65988;52.422;16.746;2023-07-22T14:12:24;99457.81;;;37.33;25.19
48402;BME280;65988;52.422;16.746;2023-07-22T14:14:50;99052.41;;;35.39;25.76
48402;BME280;65988;52.422;16.746;2023-07-22T14:17:25;99227.78;;;34.67;26.81
48402;BME280;65988;52.422;16.746;2023-07-22T14:20:12;99173.69;;;35.54;25.48
48402;BME280;65988;52.422;16.746;2023-07-22T14:22:44;99379.06;;;36.43;25.80
48402;BME280;65988;52.422;16.746;2023-07-22T14:25:22;99193.19;;;35.61;25.73
48402;BME280;65988;52.422;16.746;2023-07-22T14:27:50;99168.88;;;34.72;26.27
48402;BME280;65988;52.422;16.746;2023-07-22T14:30:42;99328.66;;;37.03;24.88
48402;BME280;65988;52.422;16.746;2023-07-22T14:33:52;99334.38;;;37.06;24.92
48402;BME280;65988;52.422;16.746;2023-07-22T14:36:41;99171.88;;;36.19;25.13
48402;BME280;65988;52.422;16.746;2023-07-22T14:42:24;99264.19;;;36.20;25.23
48402;BME280;65988;52.422;16.746;2023-07-22T14:45:21;99131.47;;;35.78;25.39
48402;BME280;65988;52.422;16.746;2023-07-22T14:51:17;99385.03;;;36.80;25.10
48402;BME280;65988;52.422;16.746;2023-07-22T14:59:59;99333.34;;;35.77;26.65
48402;BME280;65988;52.422;16.746;2023-07-22T15:02:54;99359.72;;;36.70;25.47
48402;BME280;65988;52.422;16.746;2023-07-22T15:05:38;99238.69;;;36.34;25.14
48402;BME280;65988;52.422;16.746;2023-07-22T15:08:19;98976.84;;;34.88;25.42
48402;BME280;65988;52.422;16.746;2023-07-22T15:11:01;99366.28;;;37.26;24.86
48402;BME280;65988;52.422;16.746;2023-07-22T15:16:31;98899.91;;;34.70;25.43
48402;BME280;65988;52.422;16.746;2023-07-22T15:19:07;99127.75;;;35.32;25.45
48402;BME280;65988;52.422;16.746;2023-07-22T15:25:19;99177.28;;;36.31;24.68
48402;BME280;65988;52.422;16.746;2023-07-22T15:31:10;99326.13;;;36.72;24.92
48402;BME280;65988;52.422;16.746;2023-07-22T15:33:51;99086.63;;;35.67;24.91
48402;BME280;65988;52.422;16.746;2023-07-22T15:36:46;99072.00;;;35.16;25.21
48402;BME280;65988;52.422;16.746;2023-07-22T15:39:41;99110.63;;;35.03;25.50
48402;BME280;65988;52.422;16.746;2023-07-22T15:42:25;99338.53;;;36.02;25.75
48402;BME280;65988;52.422;16.746;2023-07-22T15:45:38;99104.47;;;35.02;25.51
48402;BME280;65988;52.422;16.746;2023-07-22T15:48:24;98992.94;;;34.03;26.42
48402;BME280;65988;52.422;16.746;2023-07-22T15:51:28;99189.22;;;34.79;26.47
48402;BME280;65988;52.422;16.746;2023-07-22T15:53:53;98932.97;;;33.86;26.36
48402;BME280;65988;52.422;16.746;2023-07-22T15:56:43;99089.56;;;34.45;26.43
48402;BME280;65988;52.422;16.746;2023-07-22T15:59:36;99264.25;;;35.23;26.47
48402;BME280;65988;52.422;16.746;2023-07-22T16:02:24;99137.50;;;34.42;26.27
48402;BME280;65988;52.422;16.746;2023-07-22T16:05:31;99283.03;;;34.74;26.96
48402;BME280;65988;52.422;16.746;2023-07-22T16:07:56;98933.28;;;33.59;26.37
48402;BME280;65988;52.422;16.746;2023-07-22T16:10:30;99165.72;;;34.44;26.11
48402;BME280;65988;52.422;16.746;2023-07-22T16:13:02;99277.38;;;35.13;26.13
48402;BME280;65988;52.422;16.746;2023-07-22T16:15:36;98989.19;;;33.55;26.66
48402;BME280;65988;52.422;16.746;2023-07-22T16:18:08;99080.59;;;34.21;26.45
48402;BME280;65988;52.422;16.746;2023-07-22T16:20:47;99234.94;;;34.73;26.38
48402;BME280;65988;52.422;16.746;2023-07-22T16:23:37;99129.56;;;33.73;27.04
48402;BME280;65988;52.422;16.746;2023-07-22T16:26:03;98964.63;;;32.96;26.77
48402;BME280;65988;52.422;16.746;2023-07-22T16:28:34;99210.63;;;33.93;27.09
48402;BME280;65988;52.422;16.746;2023-07-22T16:31:17;98846.38;;;32.62;26.83
48402;BME280;65988;52.422;16.746;2023-07-22T16:33:42;98959.19;;;33.28;26.53
48402;BME280;65988;52.422;16.746;2023-07-22T16:36:12;98965.22;;;33.23;26.80
48402;BME280;65988;52.422;16.746;2023-07-22T16:38:39;99236.66;;;34.49;26.55
48402;BME280;65988;52.422;16.746;2023-07-22T16:41:05;98998.03;;;33.93;26.88
48402;BME280;65988;52.422;16.746;2023-07-22T16:43:34;99180.09;;;34.13;26.77
48402;BME280;65988;52.422;16.746;2023-07-22T16:46:00;98913.25;;;33.06;27.02
48402;BME280;65988;52.422;16.746;2023-07-22T16:48:26;99315.50;;;34.29;27.55
48402;BME280;65988;52.422;16.746;2023-07-22T16:51:02;99170.69;;;33.85;26.82
48402;BME280;65988;52.422;16.746;2023-07-22T16:53:27;98995.44;;;33.49;27.09
48402;BME280;65988;52.422;16.746;2023-07-22T16:56:10;99059.81;;;33.61;26.53
48402;BME280;65988;52.422;16.746;2023-07-22T16:59:03;99121.56;;;33.66;27.06
48402;BME280;65988;52.422;16.746;2023-07-22T17:01:49;99060.09;;;32.84;27.70
48402;BME280;65988;52.422;16.746;2023-07-22T17:04:22;99133.50;;;33.20;27.43
48402;BME280;65988;52.422;16.746;2023-07-22T17:07:38;99224.75;;;34.44;26.50
48402;BME280;65988;52.422;16.746;2023-07-22T17:10:23;99143.25;;;34.08;26.68
48402;BME280;65988;52.422;16.746;2023-07-22T17:13:01;99067.38;;;32.70;27.97
48402;BME280;65988;52.422;16.746;2023-07-22T17:15:27;99023.63;;;32.12;28.07
48402;BME280;65988;52.422;16.746;2023-07-22T17:17:58;99136.69;;;33.35;27.35
48402;BME280;65988;52.422;16.746;2023-07-22T17:21:00;99088.97;;;33.51;27.32
48402;BME280;65988;52.422;16.746;2023-07-22T17:32:03;99261.59;;;33.87;27.98
48402;BME280;65988;52.422;16.746;2023-07-22T17:37:50;99128.25;;;32.74;28.47
48402;BME280;65988;52.422;16.746;2023-07-22T17:40:16;99073.13;;;32.35;28.95
48402;BME280;65988;52.422;16.746;2023-07-22T17:42:44;98944.69;;;32.41;28.04
48402;BME280;65988;52.422;16.746;2023-07-22T17:45:12;99112.38;;;32.34;28.70
48402;BME280;65988;52.422;16.746;2023-07-22T17:50:41;99277.63;;;33.36;28.48
48402;BME280;65988;52.422;16.746;2023-07-22T17:53:46;99147.69;;;32.95;28.46
48402;BME280;65988;52.422;16.746;2023-07-22T17:56:40;99235.50;;;32.80;29.42
48402;BME280;65988;52.422;16.746;2023-07-22T17:59:14;99134.41;;;32.36;28.96
48402;BME280;65988;52.422;16.746;2023-07-22T18:02:34;99254.69;;;33.08;28.76
48402;BME280;65988;52.422;16.746;2023-07-22T18:05:23;99171.75;;;32.56;28.70
48402;BME280;65988;52.422;16.746;2023-07-22T18:08:20;99196.56;;;33.16;28.41
48402;BME280;65988;52.422;16.746;2023-07-22T18:11:33;99110.44;;;32.03;29.34
48402;BME280;65988;52.422;16.746;2023-07-22T19:46:19;99377.78;;;30.43;33.34
48402;BME280;65988;52.422;16.746;2023-07-22T20:37:21;99243.19;;;28.36;35.16
48402;BME280;65988;52.422;16.746;2023-07-22T21:00:45;99428.47;;;28.88;35.92
48402;BME280;65988;52.422;16.746;2023-07-22T21:15:34;99363.09;;;28.41;36.05
48402;BME280;65988;52.422;16.746;2023-07-22T21:18:15;99223.06;;;26.87;37.39
48402;BME280;65988;52.422;16.746;2023-07-22T21:20:40;99237.28;;;26.55;38.52
48402;BME280;65988;52.422;16.746;2023-07-22T21:23:08;99392.16;;;27.33;38.23
48402;BME280;65988;52.422;16.746;2023-07-22T21:25:40;99441.94;;;27.71;37.36
48402;BME280;65988;52.422;16.746;2023-07-22T21:28:10;99326.72;;;27.17;37.33
48402;BME280;65988;52.422;16.746;2023-07-22T21:31:14;99412.44;;;28.20;36.49
48402;BME280;65988;52.422;16.746;2023-07-22T21:33:53;99373.78;;;27.86;37.33
48402;BME280;65988;52.422;16.746;2023-07-22T21:36:25;99425.53;;;28.45;36.73
48402;BME280;65988;52.422;16.746;2023-07-22T21:38:55;99308.47;;;27.77;36.59
48402;BME280;65988;52.422;16.746;2023-07-22T21:41:24;99254.41;;;27.70;36.65
48402;BME280;65988;52.422;16.746;2023-07-22T21:43:57;99154.69;;;26.43;38.13
48402;BME280;65988;52.422;16.746;2023-07-22T21:46:26;99381.50;;;27.02;38.79
48402;BME280;65988;52.422;16.746;2023-07-22T21:49:03;99445.38;;;27.48;38.32
48402;BME280;65988;52.422;16.746;2023-07-22T21:51:42;99258.34;;;26.40;39.28
48402;BME280;65988;52.422;16.746;2023-07-22T21:54:27;99415.53;;;27.29;38.43
48402;BME280;65988;52.422;16.746;2023-07-22T21:56:58;99335.31;;;26.79;38.28
48402;BME280;65988;52.422;16.746;2023-07-22T21:59:24;99229.84;;;26.50;38.66
48402;BME280;65988;52.422;16.746;2023-07-22T22:01:50;99092.41;;;26.07;38.38
48402;BME280;65988;52.422;16.746;2023-07-22T22:04:28;99289.38;;;26.87;37.92
48402;BME280;65988;52.422;16.746;2023-07-22T22:06:56;99271.28;;;27.22;37.56
48402;BME280;65988;52.422;16.746;2023-07-22T22:09:35;99202.03;;;26.86;37.71
48402;BME280;65988;52.422;16.746;2023-07-22T22:12:04;99387.66;;;27.73;37.21
48402;BME280;65988;52.422;16.746;2023-07-22T22:14:41;99379.97;;;27.55;37.39
48402;BME280;65988;52.422;16.746;2023-07-22T22:17:10;99419.13;;;27.85;37.59
48402;BME280;65988;52.422;16.746;2023-07-22T22:19:39;99344.25;;;26.78;38.87
48402;BME280;65988;52.422;16.746;2023-07-22T22:22:13;99412.09;;;27.60;37.95
48402;BME280;65988;52.422;16.746;2023-07-22T22:24:54;99204.88;;;26.84;38.03
48402;BME280;65988;52.422;16.746;2023-07-22T22:27:24;99344.66;;;27.07;38.43
48402;BME280;65988;52.422;16.746;2023-07-22T22:30:00;99400.22;;;27.56;38.14
48402;BME280;65988;52.422;16.746;2023-07-22T22:32:25;99161.38;;;26.62;37.79
48402;BME280;65988;52.422;16.746;2023-07-22T22:34:56;99398.22;;;27.50;37.82
48402;BME280;65988;52.422;16.746;2023-07-22T22:37:22;99160.94;;;26.50;38.19
48402;BME280;65988;52.422;16.746;2023-07-22T22:39:57;99229.41;;;26.22;38.92
48402;BME280;65988;52.422;16.746;2023-07-22T22:42:29;99277.66;;;26.57;38.80
48402;BME280;65988;52.422;16.746;2023-07-22T22:44:58;99234.69;;;26.30;38.98
48402;BME280;65988;52.422;16.746;2023-07-22T22:47:24;99237.66;;;26.35;38.75
48402;BME280;65988;52.422;16.746;2023-07-22T22:49:57;99409.81;;;27.09;38.46
48402;BME280;65988;52.422;16.746;2023-07-22T22:52:28;99423.03;;;27.26;38.29
48402;BME280;65988;52.422;16.746;2023-07-22T22:55:04;99354.66;;;26.96;38.46
48402;BME280;65988;52.422;16.746;2023-07-22T22:57:32;99403.56;;;27.33;38.03
48402;BME280;65988;52.422;16.746;2023-07-22T22:59:58;99169.94;;;26.33;38.49
48402;BME280;65988;52.422;16.746;2023-07-22T23:02:28;99153.69;;;26.36;38.37
48402;BME280;65988;52.422;16.746;2023-07-22T23:04:57;99132.81;;;26.01;38.82
48402;BME280;65988;52.422;16.746;2023-07-22T23:07:29;99397.97;;;26.56;38.98
48402;BME280;65988;52.422;16.746;2023-07-22T23:09:57;99323.47;;;26.01;39.77
48402;BME280;65988;52.422;16.746;2023-07-22T23:12:25;99316.84;;;26.05;39.71
48402;BME280;65988;52.422;16.746;2023-07-22T23:14:56;99205.91;;;26.19;38.99